This is the latest recevied weather packets stored in our database for station/object DM8MH-13. If no packets are shown the sender has not sent any weather packets the latest 10 day(s).
| Time | Temp. | Humidity | Pressure | Rain* | Wind** | Luminosity | Snow |
|---|---|---|---|---|---|---|---|
| 1777702873 | 13.89° C | 66% | 1022.7 hPa | 0 mm | - | 325 W/m² | - |
| 1777702272 | 12.78° C | 69% | 1022.7 hPa | 0 mm | - | 295 W/m² | - |
| 1777701672 | 12.22° C | 70% | 1022.6 hPa | 0 mm | - | 272 W/m² | - |
| 1777701072 | 12.22° C | 73% | 1022.8 hPa | 0 mm | - | 248 W/m² | - |
| 1777700473 | 11.11° C | 75% | 1022.7 hPa | 0 mm | - | 218 W/m² | - |
| 1777699872 | 10.56° C | 77% | 1022.7 hPa | 0 mm | - | 194 W/m² | - |
| 1777699272 | 10° C | 79% | 1022.7 hPa | 0 mm | - | 171 W/m² | - |
| 1777698673 | 9.44° C | 83% | 1022.6 hPa | 0 mm | - | 137 W/m² | - |
| 1777698072 | 8.33° C | 86% | 1022.6 hPa | 0 mm | - | 112 W/m² | - |
| 1777697473 | 7.78° C | 86% | 1022.7 hPa | 0 mm | - | 90 W/m² | - |
| 1777696873 | 6.67° C | 85% | 1022.6 hPa | 0 mm | - | 59 W/m² | - |
| 1777696273 | 6.67° C | 84% | 1022.5 hPa | 0 mm | - | 31 W/m² | - |
| 1777695672 | 6.67° C | 84% | 1022.6 hPa | 0 mm | - | 13 W/m² | - |
| 1777695073 | 7.22° C | 83% | 1022.7 hPa | 0 mm | - | 10 W/m² | - |
| 1777694473 | 7.22° C | 84% | 1022.8 hPa | 0 mm | - | 7 W/m² | - |
| 1777693873 | 7.22° C | 83% | 1022.8 hPa | 0 mm | - | 2 W/m² | - |
| 1777693273 | 7.78° C | 83% | 1022.7 hPa | 0 mm | - | 0 W/m² | - |
| 1777692673 | 7.78° C | 82% | 1022.8 hPa | 0 mm | - | 0 W/m² | - |
| 1777692073 | 7.78° C | 82% | 1022.8 hPa | 0 mm | - | 0 W/m² | - |
| 1777691473 | 7.78° C | 82% | 1022.9 hPa | 0 mm | - | 0 W/m² | - |
| 1777690873 | 7.78° C | 81% | 1023.1 hPa | 0 mm | - | 0 W/m² | - |
| 1777690273 | 8.33° C | 81% | 1023.1 hPa | 0 mm | - | 0 W/m² | - |
| 1777689672 | 8.33° C | 81% | 1023.2 hPa | 0 mm | - | 0 W/m² | - |
| 1777689073 | 8.33° C | 80% | 1023.2 hPa | 0 mm | - | 0 W/m² | - |
| 1777688472 | 8.33° C | 80% | 1023.2 hPa | 0 mm | - | 0 W/m² | - |
* Rain latest hour (hover to see other rain measurements)
** Current wind speed in m/s (hover to see current wind gust speed)